Aviation Digital Data Service (ADDS)

Output produced by METARs form (2130 UTC 30 January 2015)
found at http://www.aviationweather.gov/adds/metars/
 
METAR text: KSBP 302056Z 31014KT 10SM CLR 21/11 A2989 RMK AO2 SLP120 T02060111 58030
Conditions at: KSBP (SAN LUIS OBISPO , CA, US) observed 2056 UTC 30 January 2015
Temperature: 20.6°C (69°F)
Dewpoint: 11.1°C (52°F) [RH = 54%]
Pressure (altimeter): 29.89 inches Hg (1012.3 mb)
[Sea-level pressure: 1012.0 mb]
Winds: from the NW (310 degrees) at 16 MPH (14 knots; 7.3 m/s)
Visibility: 10 or more miles (16+ km)
Ceiling: at least 12,000 feet AGL
Clouds: sky clear below 12,000 feet AGL
Weather: no significant weather observed at this time

METAR text: KSBP 301956Z 34011KT 10SM CLR 21/07 A2993 RMK AO2 SLP133 T02060072
Conditions at: KSBP (SAN LUIS OBISPO , CA, US) observed 1956 UTC 30 January 2015
Temperature: 20.6°C (69°F)
Dewpoint: 7.2°C (45°F) [RH = 42%]
Pressure (altimeter): 29.93 inches Hg (1013.6 mb)
[Sea-level pressure: 1013.3 mb]
Winds: from the NNW (340 degrees) at 13 MPH (11 knots; 5.7 m/s)
Visibility: 10 or more miles (16+ km)
Ceiling: at least 12,000 feet AGL
Clouds: sky clear below 12,000 feet AGL
Weather: no significant weather observed at this time

METAR text: KSBP 301856Z 19003KT 10SM CLR 18/09 A2996 RMK AO2 SLP144 T01780089
Conditions at: KSBP (SAN LUIS OBISPO , CA, US) observed 1856 UTC 30 January 2015
Temperature: 17.8°C (64°F)
Dewpoint: 8.9°C (48°F) [RH = 56%]
Pressure (altimeter): 29.96 inches Hg (1014.6 mb)
[Sea-level pressure: 1014.4 mb]
Winds: from the S (190 degrees) at 3 MPH (3 knots; 1.6 m/s)
Visibility: 10 or more miles (16+ km)
Ceiling: at least 12,000 feet AGL
Clouds: sky clear below 12,000 feet AGL
Weather: no significant weather observed at this time

METAR text: KSBP 301756Z 00000KT 10SM CLR 13/08 A2998 RMK AO2 SLP151 T01330083 10133 20044 58000
Conditions at: KSBP (SAN LUIS OBISPO , CA, US) observed 1756 UTC 30 January 2015
Temperature: 13.3°C (56°F)
Dewpoint: 8.3°C (47°F) [RH = 72%]
Pressure (altimeter): 29.98 inches Hg (1015.3 mb)
[Sea-level pressure: 1015.1 mb]
Winds: calm
Visibility: 10 or more miles (16+ km)
Ceiling: at least 12,000 feet AGL
Clouds: sky clear below 12,000 feet AGL
Weather: no significant weather observed at this time

METAR text: KSBP 301656Z 00000KT 9SM CLR 10/08 A2998 RMK AO2 SLP153 T01000078
Conditions at: KSBP (SAN LUIS OBISPO , CA, US) observed 1656 UTC 30 January 2015
Temperature: 10.0°C (50°F)
Dewpoint: 7.8°C (46°F) [RH = 86%]
Pressure (altimeter): 29.98 inches Hg (1015.3 mb)
[Sea-level pressure: 1015.3 mb]
Winds: calm
Visibility: 9 miles (14 km)
Ceiling: at least 12,000 feet AGL
Clouds: sky clear below 12,000 feet AGL
Weather: no significant weather observed at this time

METAR text: KSBP 301556Z 00000KT 7SM CLR 06/04 A2998 RMK AO2 SLP153 T00560044
Conditions at: KSBP (SAN LUIS OBISPO , CA, US) observed 1556 UTC 30 January 2015
Temperature: 5.6°C (42°F)
Dewpoint: 4.4°C (40°F) [RH = 92%]
Pressure (altimeter): 29.98 inches Hg (1015.3 mb)
[Sea-level pressure: 1015.3 mb]
Winds: calm
Visibility: 7 miles (11 km)
Ceiling: at least 12,000 feet AGL
Clouds: sky clear below 12,000 feet AGL
Weather: no significant weather observed at this time

METAR text: KSBP 301456Z 00000KT 10SM CLR 05/04 A2998 RMK AO2 SLP152 T00500039 53001
Conditions at: KSBP (SAN LUIS OBISPO , CA, US) observed 1456 UTC 30 January 2015
Temperature: 5.0°C (41°F)
Dewpoint: 3.9°C (39°F) [RH = 93%]
Pressure (altimeter): 29.98 inches Hg (1015.3 mb)
[Sea-level pressure: 1015.2 mb]
Winds: calm
Visibility: 10 or more miles (16+ km)
Ceiling: at least 12,000 feet AGL
Clouds: sky clear below 12,000 feet AGL
Weather: no significant weather observed at this time

METAR text: KSBP 301356Z COR 00000KT 10SM CLR 05/04 A2998 RMK AO2 SLP152 T00500039
Conditions at: KSBP (SAN LUIS OBISPO , CA, US) observed 1356 UTC 30 January 2015
Temperature: 5.0°C (41°F)
Dewpoint: 3.9°C (39°F) [RH = 93%]
Pressure (altimeter): 29.98 inches Hg (1015.3 mb)
[Sea-level pressure: 1015.2 mb]
Winds: calm
Visibility: 10 or more miles (16+ km)
Ceiling: at least 12,000 feet AGL
Clouds: sky clear below 12,000 feet AGL
Weather: no significant weather observed at this time